KCBG

Cambridge Municipal Airport

Cambridge, Minnesota, USA
METAR KCBG 181635Z AUTO 18006KT 10SM CLR 01/M03 A2973 RMK AO2
Observed Flight Rules
Dec-18 @ 16:35 UTC (9 minutes ago) Visual Flight Rules
Wind Visibility Clouds
180° at 6 knots 10 miles
  • Clear skies
Temperatures Readings
Current 1°C / 34°F
Dewpoint -3°C / 27°F
Humidity 75%
Altimeter 29.73" Hg
Pressure 1007 hPa
Elevation 287
METAR KCBG 181635Z AUTO 18006KT 10SM CLR 01/M03 A2973 RMK AO2
Observed Flight Rules
Dec-18 @ 16:35 UTC
(9 minutes ago)
VFR
Wind Visibility
180° at 6 knots 10 miles
Clouds
  • Clear skies
Temperature Dewpoint
1°C / 34°F -3°C / 27°F
Humidity Altimeter Pressure
75% 29.73" Hg 1007 hPa